Time;durP1;ratioP1;P1;durP2;ratioP2;P2;SDS_P1;SDS_P2;PMS_P1;PMS_P2;Temp;Humidity;BMP_temperature;BMP_pressure;BME280_temperature;BME280_humidity;BME280_pressure;Samples;Min_cycle;Max_cycle;Signal;HPM_P1;HPM_P2
2021/07/20 00:01:09;;;;;;;;;;;;;;;-142.75;68.39;77562.53;5083488;28;19985;-75
2021/07/20 00:03:34;;;;;;;;;;;;;;;-142.75;68.76;77558.59;5077297;28;19926;-77
2021/07/20 00:05:59;;;;;;;;;;;;;;;-142.75;68.29;77560.56;5080556;28;19931;-76
2021/07/20 00:08:25;;;;;;;;;;;;;;;-142.75;68.21;77558.59;5079158;28;19916;-76
2021/07/20 00:10:52;;;;;;;;;;;;;;;-142.75;68.34;77558.59;5082756;28;19916;-75
2021/07/20 00:13:17;;;;;;;;;;;;;;;-142.75;68.40;77556.63;5079880;28;19917;-75
2021/07/20 00:15:43;;;;;;;;;;;;;;;-142.75;68.56;77560.56;5084304;28;20011;-75
2021/07/20 00:18:10;;;;;;;;;;;;;;;-142.75;68.61;77568.44;5083374;28;19978;-75
2021/07/20 00:20:36;;;;;;;;;;;;;;;-142.75;68.74;77572.38;5078433;28;20377;-75
2021/07/20 00:23:02;;;;;;;;;;;;;;;-142.75;68.49;77572.38;5084893;28;19927;-76
2021/07/20 00:25:27;;;;;;;;;;;;;;;-142.75;68.95;77582.22;5084630;28;19924;-75
2021/07/20 00:27:52;;;;;;;;;;;;;;;-142.75;68.79;77586.16;5060346;28;20019;-76
2021/07/20 00:30:17;;;;;;;;;;;;;;;-142.75;69.23;77588.13;5080482;28;19916;-75
2021/07/20 00:32:43;;;;;;;;;;;;;;;-142.75;69.37;77590.09;5068897;28;19919;-76
2021/07/20 00:35:09;;;;;;;;;;;;;;;-142.75;69.19;77596.00;5064370;28;19916;-76
2021/07/20 00:37:35;;;;;;;;;;;;;;;-142.75;69.13;77592.06;5083570;28;20371;-75
2021/07/20 00:40:00;;;;;;;;;;;;;;;-142.75;69.13;77597.97;5079571;28;20011;-76
2021/07/20 00:42:26;;;;;;;;;;;;;;;-142.75;69.15;77586.16;5067154;28;19966;-75
2021/07/20 00:44:51;;;;;;;;;;;;;;;-142.75;69.31;77584.19;5085313;28;19923;-75
2021/07/20 00:47:17;;;;;;;;;;;;;;;-142.75;69.12;77580.25;5090138;28;20580;-76
2021/07/20 00:49:42;;;;;;;;;;;;;;;-142.75;69.01;77584.19;5085911;28;20015;-76
2021/07/20 00:52:08;;;;;;;;;;;;;;;-142.75;69.02;77590.09;5080814;28;20473;-76
2021/07/20 00:54:33;;;;;;;;;;;;;;;-142.75;69.23;77586.16;5082780;28;19924;-76
2021/07/20 00:57:00;;;;;;;;;;;;;;;-142.75;69.23;77594.03;5083462;28;19923;-76
2021/07/20 00:59:25;;;;;;;;;;;;;;;-142.75;69.39;77596.00;5082249;28;20396;-76
2021/07/20 01:01:50;;;;;;;;;;;;;;;-142.75;69.92;77609.78;5064531;28;19916;-76
2021/07/20 01:04:16;;;;;;;;;;;;;;;-142.75;70.09;77611.75;5085086;28;19921;-76
2021/07/20 01:06:42;;;;;;;;;;;;;;;-142.75;70.18;77613.72;5082379;28;19924;-76
2021/07/20 01:09:07;;;;;;;;;;;;;;;-142.75;70.12;77613.72;5083804;28;19916;-76
2021/07/20 01:11:33;;;;;;;;;;;;;;;-142.75;70.22;77609.78;5083125;28;19920;-76
2021/07/20 01:14:01;;;;;;;;;;;;;;;-142.75;70.21;77594.03;5085422;28;19955;-74
2021/07/20 01:16:26;;;;;;;;;;;;;;;-142.75;69.74;77596.00;5086742;28;19951;-75
2021/07/20 01:18:51;;;;;;;;;;;;;;;-142.75;69.36;77596.00;5081492;28;19966;-75
2021/07/20 01:21:17;;;;;;;;;;;;;;;-142.75;69.49;77605.84;5082360;28;19977;-76
2021/07/20 01:23:45;;;;;;;;;;;;;;;-142.75;70.20;77586.16;5077510;28;19925;-76
2021/07/20 01:26:10;;;;;;;;;;;;;;;-142.75;69.85;77594.03;5083204;28;19924;-76
2021/07/20 01:28:36;;;;;;;;;;;;;;;-142.75;69.55;77584.19;5081659;28;20334;-75
2021/07/20 01:31:04;;;;;;;;;;;;;;;-142.75;69.65;77582.22;5083015;28;19916;-77
2021/07/20 01:33:32;;;;;;;;;;;;;;;-142.75;69.45;77582.22;5079123;28;19924;-77
2021/07/20 01:36:00;;;;;;;;;;;;;;;-142.75;69.64;77586.16;5085217;28;20006;-76
2021/07/20 01:38:26;;;;;;;;;;;;;;;-142.75;69.44;77603.88;5066290;28;20309;-77
2021/07/20 01:40:54;;;;;;;;;;;;;;;-142.75;69.31;77613.72;5081102;28;19916;-76
2021/07/20 01:43:20;;;;;;;;;;;;;;;-142.75;69.55;77617.66;5069459;28;19946;-77
2021/07/20 01:45:46;;;;;;;;;;;;;;;-142.75;70.28;77625.53;5085607;28;19925;-77
2021/07/20 01:48:12;;;;;;;;;;;;;;;-142.75;70.03;77631.44;5084426;28;19916;-77
2021/07/20 01:50:37;;;;;;;;;;;;;;;-142.75;70.38;77637.34;5065608;28;20353;-77
2021/07/20 01:53:03;;;;;;;;;;;;;;;-142.75;70.58;77609.78;5064763;28;19927;-77
2021/07/20 01:55:29;;;;;;;;;;;;;;;-142.75;70.23;77597.97;5084564;28;19923;-77
2021/07/20 01:57:55;;;;;;;;;;;;;;;-142.75;69.94;77605.84;5087239;28;19916;-77
2021/07/20 02:00:21;;;;;;;;;;;;;;;-142.75;69.81;77615.69;5078604;28;20007;-77
2021/07/20 02:02:56;;;;;;;;;;;;;;;-142.75;69.55;77625.53;5067357;28;19924;-76
2021/07/20 02:08:27;;;;;;;;;;;;;;;-142.75;69.99;77609.78;5081789;28;19922;-77
2021/07/20 02:10:54;;;;;;;;;;;;;;;-142.75;69.79;77596.00;5078740;28;20011;-77
2021/07/20 02:13:20;;;;;;;;;;;;;;;-142.75;69.32;77594.03;5085908;28;19916;-76
2021/07/20 02:15:47;;;;;;;;;;;;;;;-142.75;69.35;77596.00;5061894;28;20343;-77
2021/07/20 02:18:13;;;;;;;;;;;;;;;-142.75;69.29;77601.91;5079646;28;19916;-77
2021/07/20 02:20:42;;;;;;;;;;;;;;;-142.75;69.32;77607.81;5077528;28;19917;-77
2021/07/20 02:23:08;;;;;;;;;;;;;;;-142.75;69.63;77611.75;5082530;28;19927;-76
2021/07/20 02:25:34;;;;;;;;;;;;;;;-142.75;69.55;77607.81;5081355;28;19920;-77
2021/07/20 02:27:59;;;;;;;;;;;;;;;-142.75;69.38;77603.88;5059288;28;19923;-77
2021/07/20 02:30:25;;;;;;;;;;;;;;;-142.75;69.31;77611.75;5082230;28;19917;-77
2021/07/20 02:32:51;;;;;;;;;;;;;;;-142.75;69.13;77623.56;5079694;28;20297;-77
2021/07/20 02:35:24;;;;;;;;;;;;;;;-142.75;69.43;77637.34;5056983;28;19916;-77
2021/07/20 02:37:50;;;;;;;;;;;;;;;-142.75;69.73;77657.03;5060377;28;19916;-76
2021/07/20 02:40:16;;;;;;;;;;;;;;;-142.75;69.95;77670.81;5076818;28;20005;-77
2021/07/20 02:42:42;;;;;;;;;;;;;;;-142.75;70.18;77674.75;5080309;28;19920;-76
2021/07/20 02:45:08;;;;;;;;;;;;;;;-142.75;70.42;77684.59;5084662;28;19942;-77
2021/07/20 02:47:33;;;;;;;;;;;;;;;-142.75;70.46;77684.59;5079190;28;19973;-76
2021/07/20 02:50:00;;;;;;;;;;;;;;;-142.75;70.58;77690.50;5083174;28;19948;-76
2021/07/20 02:52:27;;;;;;;;;;;;;;;-142.75;70.68;77694.44;5079028;28;20011;-77
2021/07/20 02:54:54;;;;;;;;;;;;;;;-142.75;70.81;77696.41;5079475;28;20053;-76
2021/07/20 02:57:19;;;;;;;;;;;;;;;-142.75;70.92;77696.41;5079154;28;19960;-76
2021/07/20 02:59:46;;;;;;;;;;;;;;;-142.75;70.97;77702.31;5054990;28;20403;-77
2021/07/20 03:02:11;;;;;;;;;;;;;;;-142.75;70.97;77696.41;5078392;28;19916;-76
2021/07/20 03:04:38;;;;;;;;;;;;;;;-142.75;71.09;77684.59;5063113;28;19924;-77
2021/07/20 03:07:05;;;;;;;;;;;;;;;-142.75;70.70;77688.53;5063657;28;19927;-76
2021/07/20 03:09:32;;;;;;;;;;;;;;;-142.75;70.21;77700.34;5082000;28;20271;-76
2021/07/20 03:12:09;;;;;;;;;;;;;;;-142.75;70.34;77716.09;5079782;28;20440;-77
2021/07/20 03:14:34;;;;;;;;;;;;;;;-142.75;70.73;77731.88;5075516;28;19920;-75
2021/07/20 03:17:00;;;;;;;;;;;;;;;-142.75;71.22;77737.78;5080785;28;19921;-76
2021/07/20 03:19:27;;;;;;;;;;;;;;;-142.75;71.25;77741.72;5082155;28;19923;-76
2021/07/20 03:21:54;;;;;;;;;;;;;;;-142.75;71.44;77737.78;5061151;28;20305;-76
2021/07/20 03:24:21;;;;;;;;;;;;;;;-142.75;71.10;77747.63;5077757;28;19927;-77
2021/07/20 03:26:47;;;;;;;;;;;;;;;-142.75;71.17;77749.59;5083626;28;19922;-77
2021/07/20 03:29:13;;;;;;;;;;;;;;;-142.75;71.50;77741.72;5079289;28;19916;-76
2021/07/20 03:31:38;;;;;;;;;;;;;;;-142.75;71.37;77745.66;5078476;28;20020;-76
2021/07/20 03:34:05;;;;;;;;;;;;;;;-142.75;70.94;77753.53;5079660;28;19960;-76
2021/07/20 03:36:30;;;;;;;;;;;;;;;-142.75;71.02;77749.59;5063343;28;20440;-76
2021/07/20 03:38:55;;;;;;;;;;;;;;;-142.75;71.19;77737.78;5076790;28;20015;-77
2021/07/20 03:41:23;;;;;;;;;;;;;;;-142.75;70.86;77743.69;5080822;28;19916;-76
2021/07/20 03:43:49;;;;;;;;;;;;;;;-142.75;70.86;77763.38;5080787;28;19927;-76
2021/07/20 03:46:14;;;;;;;;;;;;;;;-142.75;70.71;77765.34;5080896;28;19917;-77
2021/07/20 03:48:40;;;;;;;;;;;;;;;-142.75;71.26;77773.22;5083873;28;19962;-76
2021/07/20 03:51:06;;;;;;;;;;;;;;;-142.75;71.30;77775.19;5081670;28;19923;-76
2021/07/20 03:53:32;;;;;;;;;;;;;;;-142.75;71.35;77779.13;5082347;28;19936;-76
2021/07/20 03:55:58;;;;;;;;;;;;;;;-142.75;71.43;77777.16;5062680;28;19916;-76
2021/07/20 03:58:24;;;;;;;;;;;;;;;-142.75;71.60;77777.16;5082824;28;19922;-77
2021/07/20 04:00:51;;;;;;;;;;;;;;;-142.75;71.85;77759.44;5065336;28;20006;-77
2021/07/20 04:03:22;;;;;;;;;;;;;;;-142.75;71.75;77763.38;5063751;28;20351;-76
2021/07/20 04:05:49;;;;;;;;;;;;;;;-142.75;71.73;77767.31;5063013;28;20262;-76
2021/07/20 04:08:16;;;;;;;;;;;;;;;-142.75;71.92;77761.41;5087349;28;19916;-75
2021/07/20 04:10:42;;;;;;;;;;;;;;;-142.75;72.08;77735.81;5063276;28;19916;-76
2021/07/20 04:13:10;;;;;;;;;;;;;;;-142.75;72.00;77718.06;5083957;28;19916;-77
2021/07/20 04:15:36;;;;;;;;;;;;;;;-142.75;71.60;77708.22;5088608;28;20325;-76
2021/07/20 04:18:02;;;;;;;;;;;;;;;-142.75;71.37;77700.34;5065745;28;19940;-76
2021/07/20 04:20:28;;;;;;;;;;;;;;;-142.75;71.15;77686.56;5067468;28;20007;-77
2021/07/20 04:22:53;;;;;;;;;;;;;;;-142.75;70.94;77684.59;5081879;28;20010;-76
2021/07/20 04:25:19;;;;;;;;;;;;;;;-142.75;70.68;77678.69;5080215;28;19928;-76
2021/07/20 04:27:44;;;;;;;;;;;;;;;-142.75;70.50;77670.81;5080294;28;19961;-78
2021/07/20 04:30:10;;;;;;;;;;;;;;;-142.75;70.34;77672.78;5103912;22;19928;-77
2021/07/20 04:32:46;;;;;;;;;;;;;;;-142.75;70.38;77664.91;5066059;28;19942;-77
2021/07/20 04:35:13;;;;;;;;;;;;;;;-142.75;70.08;77660.97;5084022;28;19916;-76
2021/07/20 04:37:38;;;;;;;;;;;;;;;-142.75;70.05;77655.06;5077384;28;19975;-75
2021/07/20 04:40:04;;;;;;;;;;;;;;;-142.75;70.10;77653.09;5074284;28;19955;-76
2021/07/20 04:42:29;;;;;;;;;;;;;;;-142.75;70.08;77645.22;5105775;28;19916;-77
2021/07/20 04:44:54;;;;;;;;;;;;;;;-142.75;70.24;77641.28;5088968;28;19923;-77
2021/07/20 04:47:20;;;;;;;;;;;;;;;-142.75;70.46;77645.22;5089284;28;19943;-77
2021/07/20 04:49:45;;;;;;;;;;;;;;;-142.75;70.67;77641.28;5106601;28;19923;-76
2021/07/20 04:52:11;;;;;;;;;;;;;;;-142.75;70.85;77645.22;5088940;28;19915;-77
2021/07/20 04:54:37;;;;;;;;;;;;;;;-142.75;70.97;77649.16;5070441;28;19987;-77
2021/07/20 04:57:02;;;;;;;;;;;;;;;-142.75;70.70;77647.19;5065957;28;19916;-78
2021/07/20 04:59:28;;;;;;;;;;;;;;;-142.75;70.28;77633.41;5091189;28;20385;-77
2021/07/20 05:01:54;;;;;;;;;;;;;;;-142.75;69.81;77617.66;5075400;28;19920;-76
2021/07/20 05:04:20;;;;;;;;;;;;;;;-142.75;69.69;77603.88;5063784;28;19972;-76
2021/07/20 05:06:47;;;;;;;;;;;;;;;-142.75;69.44;77586.16;5080612;28;20001;-77
2021/07/20 05:09:13;;;;;;;;;;;;;;;-142.75;69.30;77584.19;5063087;28;19955;-76
2021/07/20 05:11:38;;;;;;;;;;;;;;;-142.75;69.38;77582.22;5060876;28;19927;-74
2021/07/20 05:14:04;;;;;;;;;;;;;;;-142.75;69.23;77572.38;5058546;28;19967;-74
2021/07/20 05:16:29;;;;;;;;;;;;;;;-142.75;68.82;77562.53;5076187;28;19973;-76
2021/07/20 05:18:54;;;;;;;;;;;;;;;-142.75;68.33;77556.63;5089096;28;19916;-76
2021/07/20 05:21:20;;;;;;;;;;;;;;;-142.75;67.59;77548.75;5063273;28;20301;-75
2021/07/20 05:23:45;;;;;;;;;;;;;;;-142.75;67.50;77538.91;5082754;28;19925;-75
2021/07/20 05:26:11;;;;;;;;;;;;;;;-142.75;67.72;77525.13;5078825;28;19917;-76
2021/07/20 05:28:37;;;;;;;;;;;;;;;-142.75;66.81;77517.25;5070474;28;19916;-75
2021/07/20 05:31:02;;;;;;;;;;;;;;;-142.75;67.59;77503.47;5096529;28;19968;-76
2021/07/20 05:33:29;;;;;;;;;;;;;;;-142.75;67.33;77487.72;5098710;28;19916;-75
2021/07/20 05:35:58;;;;;;;;;;;;;;;-142.75;67.19;77473.94;5062404;28;20306;-77
2021/07/20 05:38:24;;;;;;;;;;;;;;;-142.75;66.62;77460.13;5070926;28;19917;-76
2021/07/20 05:40:50;;;;;;;;;;;;;;;-142.75;66.61;77440.44;5087453;28;19924;-76
2021/07/20 05:43:16;;;;;;;;;;;;;;;-142.75;65.39;77420.75;5076804;28;19926;-75
2021/07/20 05:45:42;;;;;;;;;;;;;;;-142.75;64.27;77406.97;5067675;28;19917;-76
2021/07/20 05:48:07;;;;;;;;;;;;;;;-142.75;64.41;77389.25;5064251;28;19916;-75
2021/07/20 05:50:33;;;;;;;;;;;;;;;-142.75;63.70;77387.28;5096380;28;19970;-76
2021/07/20 05:53:00;;;;;;;;;;;;;;;-142.75;65.14;77377.44;5064447;28;19924;-75
2021/07/20 05:55:26;;;;;;;;;;;;;;;-142.75;64.20;77334.13;5060008;28;20365;-75
2021/07/20 05:57:52;;;;;;;;;;;;;;;-142.75;61.42;77304.59;5078764;28;19955;-75
2021/07/20 06:00:22;;;;;;;;;;;;;;;-142.75;61.15;77304.59;5076269;28;20365;-76
2021/07/20 06:02:48;;;;;;;;;;;;;;;-142.75;61.40;77271.13;5096987;28;20410;-75
2021/07/20 06:05:14;;;;;;;;;;;;;;;-142.75;61.38;77255.38;5076818;28;19958;-76
2021/07/20 06:07:40;;;;;;;;;;;;;;;-142.75;58.97;77239.63;5091818;28;19981;-77
2021/07/20 06:10:05;;;;;;;;;;;;;;;-142.75;59.21;77217.97;5066902;28;19923;-77
2021/07/20 06:12:31;;;;;;;;;;;;;;;-142.75;57.76;77221.91;5054869;28;19963;-76
2021/07/20 06:14:58;;;;;;;;;;;;;;;-142.75;57.56;77225.84;5088785;28;20300;-75
2021/07/20 06:17:24;;;;;;;;;;;;;;;-142.75;57.94;77217.97;5096596;28;19916;-76
2021/07/20 06:19:49;;;;;;;;;;;;;;;-142.75;57.83;77188.44;5094524;28;20456;-75
2021/07/20 06:22:14;;;;;;;;;;;;;;;-142.75;55.80;77174.66;5083814;28;19927;-74
2021/07/20 06:24:44;;;;;;;;;;;;;;;-142.75;55.04;77160.88;5082249;28;20447;-75
2021/07/20 06:27:10;;;;;;;;;;;;;;;-142.75;55.63;77137.25;5080847;28;19927;-75
2021/07/20 06:29:36;;;;;;;;;;;;;;;-142.75;54.96;77109.69;5073396;28;19950;-74
2021/07/20 06:32:02;;;;;;;;;;;;;;;-142.75;53.64;77105.75;5066305;28;19916;-75
2021/07/20 06:34:28;;;;;;;;;;;;;;;-142.75;54.04;77091.97;5075359;28;19916;-74
2021/07/20 06:36:54;;;;;;;;;;;;;;;-142.75;54.54;77078.19;5079780;28;19917;-75
2021/07/20 06:39:19;;;;;;;;;;;;;;;-142.75;53.47;77056.53;5086252;28;20368;-74
2021/07/20 06:41:45;;;;;;;;;;;;;;;-142.75;52.74;77017.16;5058304;28;20023;-75
2021/07/20 06:44:10;;;;;;;;;;;;;;;-142.75;51.50;77015.19;5071107;28;20305;-74
2021/07/20 06:46:36;;;;;;;;;;;;;;;-142.75;50.46;76995.50;5079961;28;19961;-75
2021/07/20 06:49:02;;;;;;;;;;;;;;;-142.75;50.48;76958.09;5075552;28;20003;-76
2021/07/20 06:51:31;;;;;;;;;;;;;;;-142.75;50.86;76912.81;5081590;28;19955;-74
2021/07/20 06:53:56;;;;;;;;;;;;;;;-142.75;51.52;76908.88;5062784;28;19916;-75
2021/07/20 06:56:30;;;;;;;;;;;;;;;-142.75;50.14;76885.25;5081444;28;19916;-75
2021/07/20 06:58:57;;;;;;;;;;;;;;;-142.75;48.63;76847.84;5083533;28;19961;-76
2021/07/20 07:01:23;;;;;;;;;;;;;;;-142.75;48.69;76834.06;5061586;28;20298;-74
2021/07/20 07:03:57;;;;;;;;;;;;;;;-142.75;48.54;76895.09;5067549;28;19965;-75
2021/07/20 07:06:24;;;;;;;;;;;;;;;-142.75;48.14;76869.50;5060111;28;19917;-76
2021/07/20 07:08:49;;;;;;;;;;;;;;;-142.75;47.11;76826.19;5084871;28;19923;-75
2021/07/20 07:11:15;;;;;;;;;;;;;;;-142.75;48.12;76853.75;5074769;28;19917;-75
2021/07/20 07:13:41;;;;;;;;;;;;;;;-142.75;48.56;76873.44;5082258;28;19924;-74
2021/07/20 07:16:06;;;;;;;;;;;;;;;-142.75;46.26;76798.66;5076976;28;19923;-73
2021/07/20 07:18:32;;;;;;;;;;;;;;;-142.75;47.54;76814.38;5088036;28;20011;-75
2021/07/20 07:20:58;;;;;;;;;;;;;;;-142.75;47.17;76834.06;5081399;28;19927;-76
2021/07/20 07:23:25;;;;;;;;;;;;;;;-142.75;48.05;76834.06;5067378;28;19916;-76
2021/07/20 07:25:52;;;;;;;;;;;;;;;-142.75;46.79;76818.31;5087980;28;20296;-77
2021/07/20 07:28:19;;;;;;;;;;;;;;;-142.75;46.18;76706.13;5085198;28;20038;-78
2021/07/20 07:30:46;;;;;;;;;;;;;;;-142.75;44.30;76712.03;5063980;28;20023;-75
2021/07/20 07:33:11;;;;;;;;;;;;;;;-142.75;44.54;76719.91;5085485;28;19923;-76
2021/07/20 07:35:36;;;;;;;;;;;;;;;-142.75;44.58;76690.38;5087005;28;19916;-78
2021/07/20 07:38:02;;;;;;;;;;;;;;;-142.75;44.16;76676.59;5072986;28;19916;-76
2021/07/20 07:40:28;;;;;;;;;;;;;;;-142.75;43.63;76625.41;5057124;28;19916;-76
2021/07/20 07:42:54;;;;;;;;;;;;;;;-142.75;43.32;76631.31;5093029;28;19916;-77
2021/07/20 07:45:19;;;;;;;;;;;;;;;-142.75;43.43;76611.63;5065569;28;20011;-76
2021/07/20 07:47:45;;;;;;;;;;;;;;;-142.75;41.68;76554.53;5053970;28;19950;-77
2021/07/20 07:50:10;;;;;;;;;;;;;;;-142.75;41.71;76499.44;5060000;28;19916;-77
2021/07/20 07:52:36;;;;;;;;;;;;;;;-142.75;42.55;76515.19;5078202;28;19967;-77
2021/07/20 07:55:02;;;;;;;;;;;;;;;-142.75;41.27;76554.53;5074360;28;20297;-77
2021/07/20 07:57:28;;;;;;;;;;;;;;;-142.75;41.73;76542.72;5064648;28;19916;-77
2021/07/20 07:59:55;;;;;;;;;;;;;;;-142.75;41.88;76511.25;5084147;28;19916;-77
2021/07/20 08:02:22;;;;;;;;;;;;;;;-142.75;40.76;76582.09;5090560;28;20397;-76
2021/07/20 08:04:49;;;;;;;;;;;;;;;-142.75;42.40;76566.34;5068570;28;19923;-77
2021/07/20 08:07:16;;;;;;;;;;;;;;;-142.75;41.53;76511.25;5066402;28;21472;-77
2021/07/20 08:09:44;;;;;;;;;;;;;;;-142.75;40.43;76505.34;5084166;28;19917;-77
2021/07/20 08:12:12;;;;;;;;;;;;;;;-142.75;40.58;76469.91;5077511;28;19969;-78
2021/07/20 08:14:38;;;;;;;;;;;;;;;-142.75;40.49;76393.13;5088679;28;19916;-76
2021/07/20 08:17:04;;;;;;;;;;;;;;;-142.75;39.92;76436.44;5072967;28;19916;-77
2021/07/20 08:19:33;;;;;;;;;;;;;;;-142.75;40.88;76495.50;5087532;28;19980;-76
2021/07/20 08:22:01;;;;;;;;;;;;;;;-142.75;39.78;76460.06;5077208;28;20030;-77
2021/07/20 08:24:26;;;;;;;;;;;;;;;-142.75;40.73;76503.38;5082120;28;19916;-77
2021/07/20 08:26:56;;;;;;;;;;;;;;;-142.75;40.07;76446.28;5087055;28;20303;-77
2021/07/20 08:29:25;;;;;;;;;;;;;;;-142.75;39.62;76341.97;5080753;28;19916;-75
2021/07/20 08:31:56;;;;;;;;;;;;;;;-142.75;38.96;76430.53;5089674;28;19916;-76
2021/07/20 08:34:23;;;;;;;;;;;;;;;-142.75;39.77;76465.97;5058655;28;20370;-77
2021/07/20 08:36:48;;;;;;;;;;;;;;;-142.75;39.20;76448.25;5078234;28;19924;-77
2021/07/20 08:39:14;;;;;;;;;;;;;;;-142.75;38.95;76395.09;5077260;28;19916;-74
2021/07/20 08:42:09;;;;;;;;;;;;;;;-142.75;39.75;76265.19;5069592;28;19920;-77
2021/07/20 08:44:40;;;;;;;;;;;;;;;-142.75;37.98;76322.28;5050917;28;19920;-77
2021/07/20 08:47:05;;;;;;;;;;;;;;;-142.75;37.97;76267.16;5083793;28;19923;-77
2021/07/20 08:49:31;;;;;;;;;;;;;;;-142.75;36.68;76188.44;5101961;28;19916;-77
2021/07/20 08:51:59;;;;;;;;;;;;;;;-142.75;36.93;76196.31;5062335;28;19927;-77
2021/07/20 08:54:26;;;;;;;;;;;;;;;-142.75;38.65;76255.34;5070258;28;19923;-77
2021/07/20 08:56:52;;;;;;;;;;;;;;;-142.75;38.91;76263.22;5082703;28;20064;-78
2021/07/20 08:59:20;;;;;;;;;;;;;;;-142.75;37.92;76231.72;5078683;28;19916;-77
2021/07/20 09:01:52;;;;;;;;;;;;;;;-142.75;38.17;76271.09;5078123;28;19920;-77
2021/07/20 09:04:21;;;;;;;;;;;;;;;-142.75;38.50;76300.63;5096289;28;20331;-78
2021/07/20 09:07:00;;;;;;;;;;;;;;;-142.75;38.40;76239.59;5068485;28;20406;-76
2021/07/20 09:09:32;;;;;;;;;;;;;;;-142.75;37.41;76233.69;5099968;28;20304;-78
2021/07/20 09:12:10;;;;;;;;;;;;;;;-142.75;36.54;76160.88;5098895;28;20077;-77
2021/07/20 09:14:35;;;;;;;;;;;;;;;-142.75;38.86;76180.56;5078637;28;19923;-77
2021/07/20 09:17:04;;;;;;;;;;;;;;;-142.75;37.43;76154.97;5081707;28;20363;-77
2021/07/20 09:19:35;;;;;;;;;;;;;;;-142.75;37.79;76217.94;5096161;28;19974;-77
2021/07/20 09:22:06;;;;;;;;;;;;;;;-142.75;37.17;76178.59;5068602;28;19920;-77
2021/07/20 09:24:50;;;;;;;;;;;;;;;-142.75;37.02;76237.63;5061693;28;20023;-76
2021/07/20 09:27:36;;;;;;;;;;;;;;;-142.75;37.63;76269.13;5082118;28;19969;-76
2021/07/20 09:30:04;;;;;;;;;;;;;;;-142.75;37.80;76245.50;5068265;28;20285;-75
2021/07/20 09:32:38;;;;;;;;;;;;;;;-142.75;37.47;76196.31;5061094;28;19924;-76
2021/07/20 09:35:22;;;;;;;;;;;;;;;-142.75;37.45;76243.53;5076299;28;19916;-77
2021/07/20 09:37:57;;;;;;;;;;;;;;;-142.75;37.87;76223.84;5077696;28;19920;-77
2021/07/20 09:40:31;;;;;;;;;;;;;;;-142.75;38.14;76034.91;5057715;28;19999;-77
2021/07/20 09:43:02;;;;;;;;;;;;;;;-142.75;33.57;75942.41;5062476;28;19916;-77
2021/07/20 09:45:47;;;;;;;;;;;;;;;-142.75;34.01;75767.22;5090830;28;19947;-79
2021/07/20 09:48:22;;;;;;;;;;;;;;;-142.75;35.72;75948.31;5060653;28;19938;-77
2021/07/20 09:50:50;;;;;;;;;;;;;;;-142.75;36.07;76097.88;5056592;28;19923;-78
2021/07/20 09:53:22;;;;;;;;;;;;;;;-142.75;34.90;75979.78;5073248;28;19923;-78
2021/07/20 09:56:02;;;;;;;;;;;;;;;-142.75;36.87;76062.47;5059213;28;19924;-78
2021/07/20 09:58:30;;;;;;;;;;;;;;;-142.75;37.00;75891.22;5076947;28;19917;-77
2021/07/20 10:01:01;;;;;;;;;;;;;;;-142.75;33.48;75765.25;5082607;28;19920;-77
2021/07/20 10:03:49;;;;;;;;;;;;;;;-142.75;33.48;75781.00;5081104;28;19923;-76
2021/07/20 10:06:20;;;;;;;;;;;;;;;-142.75;34.16;75855.81;5082267;28;19922;-77
2021/07/20 10:08:48;;;;;;;;;;;;;;;-142.75;33.85;75899.09;5080517;28;20401;-77
2021/07/20 10:11:18;;;;;;;;;;;;;;;-142.75;35.87;76011.28;5059964;28;19955;-77
2021/07/20 10:13:51;;;;;;;;;;;;;;;-142.75;34.40;75800.69;5074416;28;19916;-78
2021/07/20 10:16:35;;;;;;;;;;;;;;;-142.75;32.51;75574.38;5075221;28;19955;-78
2021/07/20 10:19:03;;;;;;;;;;;;;;;-142.75;30.74;75552.72;5057863;28;19924;-78
2021/07/20 10:21:30;;;;;;;;;;;;;;;-142.75;32.78;75751.50;5060177;28;20156;-77
2021/07/20 10:24:00;;;;;;;;;;;;;;;-142.75;31.45;75682.59;5065701;28;19966;-78
2021/07/20 10:26:38;;;;;;;;;;;;;;;-142.75;33.44;75704.25;5078246;28;20353;-77
2021/07/20 10:29:20;;;;;;;;;;;;;;;-142.75;32.03;75507.47;5074732;28;19919;-77
2021/07/20 10:31:52;;;;;;;;;;;;;;;-142.75;33.58;75761.34;5067056;28;19916;-77
2021/07/20 10:34:20;;;;;;;;;;;;;;;-142.75;32.47;75773.13;5080766;28;19995;-77
2021/07/20 10:36:46;;;;;;;;;;;;;;;-142.75;34.42;75735.75;5092848;28;20396;-77
2021/07/20 10:39:13;;;;;;;;;;;;;;;-142.75;31.97;75578.31;5093437;28;19935;-77
2021/07/20 10:41:52;;;;;;;;;;;;;;;-142.75;32.92;75696.38;5088582;28;19924;-77
2021/07/20 10:44:33;;;;;;;;;;;;;;;-142.75;33.08;75779.03;5068907;28;19967;-77
2021/07/20 10:47:01;;;;;;;;;;;;;;;-142.75;35.07;75885.31;5081739;28;19923;-78
2021/07/20 10:49:50;;;;;;;;;;;;;;;-142.75;35.22;75922.72;5078242;28;20007;-78
2021/07/20 10:52:25;;;;;;;;;;;;;;;-142.75;35.02;75806.59;5072466;28;19923;-78
2021/07/20 10:55:00;;;;;;;;;;;;;;;-142.75;33.75;75678.66;5080885;28;19917;-78
2021/07/20 10:57:33;;;;;;;;;;;;;;;-142.75;31.77;75487.78;5076118;28;19916;-78
2021/07/20 11:00:04;;;;;;;;;;;;;;;-142.75;30.08;75422.84;5077313;28;19917;-78
2021/07/20 11:02:48;;;;;;;;;;;;;;;-142.75;31.35;75468.09;5084457;28;20015;-78
2021/07/20 11:05:14;;;;;;;;;;;;;;;-142.75;30.08;75302.78;5057914;28;20412;-79
2021/07/20 11:07:45;;;;;;;;;;;;;;;-142.75;29.74;75229.97;5082277;28;20010;-77
2021/07/20 11:10:12;;;;;;;;;;;;;;;-142.75;28.96;75157.19;5081522;28;19962;-78
2021/07/20 11:12:41;;;;;;;;;;;;;;;-142.75;29.55;75149.31;5061164;28;20011;-79
2021/07/20 11:15:07;;;;;;;;;;;;;;;-142.75;29.11;75117.81;5059504;28;19923;-79
2021/07/20 11:17:33;;;;;;;;;;;;;;;-142.75;29.71;75265.41;5058939;28;19948;-78
2021/07/20 11:20:01;;;;;;;;;;;;;;;-142.75;30.20;75381.50;5067748;28;19917;-78
2021/07/20 11:22:27;;;;;;;;;;;;;;;-142.75;32.85;75582.25;5064442;28;19955;-77
2021/07/20 11:24:53;;;;;;;;;;;;;;;-142.75;30.79;75554.69;5074301;28;20297;-76
2021/07/20 11:27:20;;;;;;;;;;;;;;;-142.75;33.27;75755.44;5069501;28;20285;-77
2021/07/20 11:29:46;;;;;;;;;;;;;;;-142.75;34.33;75810.53;5069069;28;19916;-76
2021/07/20 11:32:14;;;;;;;;;;;;;;;-142.75;35.33;75934.53;5061744;28;19924;-77
2021/07/20 11:34:42;;;;;;;;;;;;;;;-142.75;36.61;75993.56;5076049;28;19920;-78
2021/07/20 11:37:11;;;;;;;;;;;;;;;-142.75;36.43;75989.63;5083569;28;19936;-77
2021/07/20 11:39:39;;;;;;;;;;;;;;;-142.75;34.49;75940.44;5090001;28;19916;-77
2021/07/20 11:42:09;;;;;;;;;;;;;;;-142.75;35.40;75908.94;5065268;28;20390;-78
2021/07/20 11:44:44;;;;;;;;;;;;;;;-142.75;35.54;75743.63;5062138;28;19916;-78
2021/07/20 11:47:17;;;;;;;;;;;;;;;-142.75;33.99;75599.94;5075616;28;19959;-78
2021/07/20 11:50:01;;;;;;;;;;;;;;;-142.75;32.67;75523.19;5082236;28;19924;-78
2021/07/20 11:52:35;;;;;;;;;;;;;;;-142.75;32.47;75456.28;5074141;28;19922;-78
2021/07/20 11:55:19;;;;;;;;;;;;;;;-142.75;31.36;75393.31;5093055;28;20349;-78
2021/07/20 11:58:02;;;;;;;;;;;;;;;-142.75;31.60;75416.94;5090899;28;19916;-78
2021/07/20 12:00:28;;;;;;;;;;;;;;;-142.75;32.33;75680.63;5073843;28;19918;-77
2021/07/20 12:03:11;;;;;;;;;;;;;;;-142.75;34.07;75804.63;5061899;28;20015;-78
2021/07/20 12:05:55;;;;;;;;;;;;;;;-142.75;34.57;75810.53;5092457;28;19920;-77
2021/07/20 12:08:32;;;;;;;;;;;;;;;-142.75;34.69;75822.34;5098328;28;20458;-79
2021/07/20 12:11:03;;;;;;;;;;;;;;;-142.75;34.99;75755.44;5081272;28;19916;-78
2021/07/20 12:13:28;;;;;;;;;;;;;;;-142.75;33.33;75725.91;5069018;28;19975;-79
2021/07/20 12:15:55;;;;;;;;;;;;;;;-142.75;33.66;75698.34;5086411;28;19960;-79
2021/07/20 12:18:21;;;;;;;;;;;;;;;-142.75;33.40;75672.78;5066401;28;20007;-78
2021/07/20 12:20:46;;;;;;;;;;;;;;;-142.75;33.00;75674.72;5087965;28;19962;-79
2021/07/20 12:23:12;;;;;;;;;;;;;;;-142.75;33.67;75800.69;5076029;28;19916;-77
2021/07/20 12:25:38;;;;;;;;;;;;;;;-142.75;34.91;75786.91;5077734;28;19917;-77
2021/07/20 12:28:03;;;;;;;;;;;;;;;-142.75;34.62;75771.16;5059596;28;19944;-77
2021/07/20 12:30:29;;;;;;;;;;;;;;;-142.75;35.17;75747.56;5077652;28;19916;-78
2021/07/20 12:32:56;;;;;;;;;;;;;;;-142.75;33.26;75798.72;5096553;28;20289;-78
2021/07/20 12:35:21;;;;;;;;;;;;;;;-142.75;34.91;75926.66;5080115;28;20332;-78